sensor_id;sensor_type;location;lat;lon;timestamp;pressure;altitude;pressure_sealevel;temperature;humidity
62712;BME280;48772;55.586;37.730;2023-03-04T00:02:13;97670.84;;;-2.27;100.00
62712;BME280;48772;55.586;37.730;2023-03-04T00:04:39;97627.72;;;-2.47;100.00
62712;BME280;48772;55.586;37.730;2023-03-04T00:07:04;97664.72;;;-2.26;100.00
62712;BME280;48772;55.586;37.730;2023-03-04T00:09:30;97677.38;;;-2.20;100.00
62712;BME280;48772;55.586;37.730;2023-03-04T00:11:56;97650.72;;;-2.25;100.00
62712;BME280;48772;55.586;37.730;2023-03-04T00:14:22;97650.63;;;-2.24;100.00
62712;BME280;48772;55.586;37.730;2023-03-04T00:16:48;97640.75;;;-2.19;100.00
62712;BME280;48772;55.586;37.730;2023-03-04T00:19:14;97654.44;;;-2.15;100.00
62712;BME280;48772;55.586;37.730;2023-03-04T00:21:40;97602.63;;;-2.49;100.00
62712;BME280;48772;55.586;37.730;2023-03-04T00:24:06;97637.69;;;-2.25;100.00
62712;BME280;48772;55.586;37.730;2023-03-04T00:26:32;97623.88;;;-2.27;100.00
62712;BME280;48772;55.586;37.730;2023-03-04T00:28:57;97622.28;;;-2.30;100.00
62712;BME280;48772;55.586;37.730;2023-03-04T00:31:23;97627.88;;;-2.22;100.00
62712;BME280;48772;55.586;37.730;2023-03-04T00:33:49;97637.56;;;-2.10;100.00
62712;BME280;48772;55.586;37.730;2023-03-04T00:36:15;97638.59;;;-2.12;100.00
62712;BME280;48772;55.586;37.730;2023-03-04T00:38:40;97623.31;;;-2.18;100.00
62712;BME280;48772;55.586;37.730;2023-03-04T00:41:07;97634.22;;;-2.12;100.00
62712;BME280;48772;55.586;37.730;2023-03-04T00:43:33;97580.44;;;-2.42;100.00
62712;BME280;48772;55.586;37.730;2023-03-04T00:45:59;97611.56;;;-2.25;100.00
62712;BME280;48772;55.586;37.730;2023-03-04T00:48:24;97625.84;;;-2.17;100.00
62712;BME280;48772;55.586;37.730;2023-03-04T00:50:50;97621.91;;;-2.24;100.00
62712;BME280;48772;55.586;37.730;2023-03-04T00:53:18;97625.75;;;-2.29;100.00
62712;BME280;48772;55.586;37.730;2023-03-04T00:55:44;97627.59;;;-2.31;100.00
62712;BME280;48772;55.586;37.730;2023-03-04T00:58:13;97614.38;;;-2.42;100.00
62712;BME280;48772;55.586;37.730;2023-03-04T01:00:39;97561.66;;;-2.75;100.00
62712;BME280;48772;55.586;37.730;2023-03-04T01:03:05;97626.13;;;-2.35;100.00
62712;BME280;48772;55.586;37.730;2023-03-04T01:05:31;97526.06;;;-3.04;100.00
62712;BME280;48772;55.586;37.730;2023-03-04T01:07:58;97537.44;;;-3.05;100.00
62712;BME280;48772;55.586;37.730;2023-03-04T01:10:27;97545.06;;;-3.02;100.00
62712;BME280;48772;55.586;37.730;2023-03-04T01:12:53;97591.63;;;-2.68;100.00
62712;BME280;48772;55.586;37.730;2023-03-04T01:15:21;97580.47;;;-2.84;100.00
62712;BME280;48772;55.586;37.730;2023-03-04T01:17:47;97630.31;;;-2.61;100.00
62712;BME280;48772;55.586;37.730;2023-03-04T01:20:14;97557.06;;;-3.14;100.00
62712;BME280;48772;55.586;37.730;2023-03-04T01:22:40;97552.13;;;-3.18;100.00
62712;BME280;48772;55.586;37.730;2023-03-04T01:25:07;97577.72;;;-3.11;100.00
62712;BME280;48772;55.586;37.730;2023-03-04T01:27:33;97644.19;;;-2.74;100.00
62712;BME280;48772;55.586;37.730;2023-03-04T01:29:59;97636.75;;;-2.66;100.00
62712;BME280;48772;55.586;37.730;2023-03-04T01:32:25;97588.09;;;-2.95;100.00
62712;BME280;48772;55.586;37.730;2023-03-04T01:34:51;97629.09;;;-2.69;100.00
62712;BME280;48772;55.586;37.730;2023-03-04T01:37:17;97636.75;;;-2.66;100.00
62712;BME280;48772;55.586;37.730;2023-03-04T01:39:45;97590.53;;;-2.92;100.00
62712;BME280;48772;55.586;37.730;2023-03-04T01:42:22;97574.28;;;-2.97;100.00
62712;BME280;48772;55.586;37.730;2023-03-04T01:44:50;97600.75;;;-2.75;100.00
62712;BME280;48772;55.586;37.730;2023-03-04T01:47:17;97603.47;;;-2.77;100.00
62712;BME280;48772;55.586;37.730;2023-03-04T01:49:43;97562.13;;;-2.97;100.00
62712;BME280;48772;55.586;37.730;2023-03-04T01:52:11;97613.25;;;-2.66;100.00
62712;BME280;48772;55.586;37.730;2023-03-04T01:54:38;97611.97;;;-2.59;100.00
62712;BME280;48772;55.586;37.730;2023-03-04T01:57:24;97550.28;;;-3.02;100.00
62712;BME280;48772;55.586;37.730;2023-03-04T02:00:10;97622.00;;;-2.53;100.00
62712;BME280;48772;55.586;37.730;2023-03-04T02:02:39;97603.19;;;-2.58;100.00
62712;BME280;48772;55.586;37.730;2023-03-04T02:05:05;97595.09;;;-2.68;100.00
62712;BME280;48772;55.586;37.730;2023-03-04T02:07:31;97607.66;;;-2.46;100.00
62712;BME280;48772;55.586;37.730;2023-03-04T02:09:59;97571.91;;;-2.58;100.00
62712;BME280;48772;55.586;37.730;2023-03-04T02:12:25;97560.94;;;-2.63;100.00
62712;BME280;48772;55.586;37.730;2023-03-04T02:14:51;97559.72;;;-2.58;100.00
62712;BME280;48772;55.586;37.730;2023-03-04T02:17:23;97534.84;;;-2.63;100.00
62712;BME280;48772;55.586;37.730;2023-03-04T02:19:54;97576.09;;;-2.42;100.00
62712;BME280;48772;55.586;37.730;2023-03-04T02:22:22;97567.81;;;-2.48;100.00
62712;BME280;48772;55.586;37.730;2023-03-04T02:24:53;97550.75;;;-2.54;100.00
62712;BME280;48772;55.586;37.730;2023-03-04T02:27:22;97546.75;;;-2.59;100.00
62712;BME280;48772;55.586;37.730;2023-03-04T02:29:48;97569.09;;;-2.41;100.00
62712;BME280;48772;55.586;37.730;2023-03-04T02:32:15;97571.91;;;-2.44;100.00
62712;BME280;48772;55.586;37.730;2023-03-04T02:34:46;97549.72;;;-2.51;100.00
62712;BME280;48772;55.586;37.730;2023-03-04T02:37:13;97501.78;;;-2.77;100.00
62712;BME280;48772;55.586;37.730;2023-03-04T02:39:43;97557.19;;;-2.45;100.00
62712;BME280;48772;55.586;37.730;2023-03-04T02:42:10;97493.94;;;-2.77;100.00
62712;BME280;48772;55.586;37.730;2023-03-04T02:44:44;97540.34;;;-2.54;100.00
62712;BME280;48772;55.586;37.730;2023-03-04T02:47:15;97525.81;;;-2.58;100.00
62712;BME280;48772;55.586;37.730;2023-03-04T02:49:45;97498.44;;;-2.65;100.00
62712;BME280;48772;55.586;37.730;2023-03-04T02:52:20;97539.47;;;-2.40;100.00
62712;BME280;48772;55.586;37.730;2023-03-04T02:54:47;97495.22;;;-2.56;100.00
62712;BME280;48772;55.586;37.730;2023-03-04T02:57:13;97488.44;;;-2.58;100.00
62712;BME280;48772;55.586;37.730;2023-03-04T02:59:42;97417.00;;;-2.96;100.00
62712;BME280;48772;55.586;37.730;2023-03-04T03:02:12;97456.03;;;-2.68;100.00
62712;BME280;48772;55.586;37.730;2023-03-04T03:04:39;97434.06;;;-2.78;100.00
62712;BME280;48772;55.586;37.730;2023-03-04T03:07:08;97500.25;;;-2.39;100.00
62712;BME280;48772;55.586;37.730;2023-03-04T03:09:34;97445.06;;;-2.73;100.00
62712;BME280;48772;55.586;37.730;2023-03-04T03:12:00;97447.09;;;-2.64;100.00
62712;BME280;48772;55.586;37.730;2023-03-04T03:14:28;97440.19;;;-2.65;100.00
62712;BME280;48772;55.586;37.730;2023-03-04T03:16:54;97501.13;;;-2.26;100.00
62712;BME280;48772;55.586;37.730;2023-03-04T03:19:20;97467.38;;;-2.55;100.00
62712;BME280;48772;55.586;37.730;2023-03-04T03:21:46;97466.59;;;-2.43;100.00
62712;BME280;48772;55.586;37.730;2023-03-04T03:24:11;97477.19;;;-2.32;100.00
62712;BME280;48772;55.586;37.730;2023-03-04T03:26:38;97474.59;;;-2.32;100.00
62712;BME280;48772;55.586;37.730;2023-03-04T03:29:04;97478.06;;;-2.32;100.00
62712;BME280;48772;55.586;37.730;2023-03-04T03:31:30;97479.81;;;-2.32;100.00
62712;BME280;48772;55.586;37.730;2023-03-04T03:33:56;97468.84;;;-2.37;100.00
62712;BME280;48772;55.586;37.730;2023-03-04T03:36:22;97488.31;;;-2.16;100.00
62712;BME280;48772;55.586;37.730;2023-03-04T03:38:47;97448.72;;;-2.49;100.00
62712;BME280;48772;55.586;37.730;2023-03-04T03:41:13;97457.22;;;-2.46;100.00
62712;BME280;48772;55.586;37.730;2023-03-04T03:43:39;97478.94;;;-2.19;100.00
62712;BME280;48772;55.586;37.730;2023-03-04T03:46:05;97430.47;;;-2.49;100.00
62712;BME280;48772;55.586;37.730;2023-03-04T03:48:30;97459.59;;;-2.29;100.00
62712;BME280;48772;55.586;37.730;2023-03-04T03:50:56;97415.19;;;-2.41;100.00
62712;BME280;48772;55.586;37.730;2023-03-04T03:53:22;97435.78;;;-2.24;100.00
62712;BME280;48772;55.586;37.730;2023-03-04T03:55:48;97446.69;;;-2.18;100.00
62712;BME280;48772;55.586;37.730;2023-03-04T03:58:14;97465.50;;;-2.13;100.00
62712;BME280;48772;55.586;37.730;2023-03-04T04:00:39;97409.88;;;-2.40;100.00
62712;BME280;48772;55.586;37.730;2023-03-04T04:03:06;97409.03;;;-2.40;100.00
62712;BME280;48772;55.586;37.730;2023-03-04T04:05:31;97427.97;;;-2.24;100.00
62712;BME280;48772;55.586;37.730;2023-03-04T04:07:57;97380.19;;;-2.51;100.00
62712;BME280;48772;55.586;37.730;2023-03-04T04:10:23;97426.25;;;-2.11;100.00
62712;BME280;48772;55.586;37.730;2023-03-04T04:12:49;97435.84;;;-2.12;100.00
62712;BME280;48772;55.586;37.730;2023-03-04T04:15:15;97372.34;;;-2.51;100.00
62712;BME280;48772;55.586;37.730;2023-03-04T04:17:42;97332.19;;;-2.75;100.00
62712;BME280;48772;55.586;37.730;2023-03-04T04:20:08;97379.28;;;-2.38;100.00
62712;BME280;48772;55.586;37.730;2023-03-04T04:22:34;97427.06;;;-2.11;100.00
62712;BME280;48772;55.586;37.730;2023-03-04T04:25:00;97389.00;;;-2.27;100.00
62712;BME280;48772;55.586;37.730;2023-03-04T04:27:28;97390.50;;;-2.23;100.00
62712;BME280;48772;55.586;37.730;2023-03-04T04:29:54;97343.28;;;-2.45;100.00
62712;BME280;48772;55.586;37.730;2023-03-04T04:32:20;97404.03;;;-2.04;100.00
62712;BME280;48772;55.586;37.730;2023-03-04T04:34:46;97387.63;;;-2.06;100.00
62712;BME280;48772;55.586;37.730;2023-03-04T04:37:13;97415.22;;;-1.90;100.00
62712;BME280;48772;55.586;37.730;2023-03-04T04:39:39;97293.31;;;-2.66;100.00
62712;BME280;48772;55.586;37.730;2023-03-04T04:42:05;97415.00;;;-1.87;100.00
62712;BME280;48772;55.586;37.730;2023-03-04T04:44:31;97425.56;;;-1.88;100.00
62712;BME280;48772;55.586;37.730;2023-03-04T04:46:57;97348.72;;;-2.36;100.00
62712;BME280;48772;55.586;37.730;2023-03-04T04:49:23;97317.59;;;-2.51;100.00
62712;BME280;48772;55.586;37.730;2023-03-04T04:51:49;97401.22;;;-2.01;100.00
62712;BME280;48772;55.586;37.730;2023-03-04T04:54:18;97395.28;;;-1.91;100.00
62712;BME280;48772;55.586;37.730;2023-03-04T04:56:43;97387.13;;;-1.99;100.00
62712;BME280;48772;55.586;37.730;2023-03-04T04:59:09;97412.31;;;-1.85;100.00
62712;BME280;48772;55.586;37.730;2023-03-04T05:01:35;97364.22;;;-2.08;100.00
62712;BME280;48772;55.586;37.730;2023-03-04T05:04:26;97421.22;;;-1.75;100.00
62712;BME280;48772;55.586;37.730;2023-03-04T05:07:01;97397.69;;;-1.75;100.00
62712;BME280;48772;55.586;37.730;2023-03-04T05:09:32;97330.84;;;-2.03;100.00
62712;BME280;48772;55.586;37.730;2023-03-04T05:11:58;97282.78;;;-2.25;100.00
62712;BME280;48772;55.586;37.730;2023-03-04T05:14:24;97334.59;;;-1.69;100.00
62712;BME280;48772;55.586;37.730;2023-03-04T05:16:50;97384.81;;;-1.16;100.00
62712;BME280;48772;55.586;37.730;2023-03-04T05:19:18;97387.00;;;-0.97;100.00
62712;BME280;48772;55.586;37.730;2023-03-04T05:21:45;97343.22;;;-1.19;100.00
62712;BME280;48772;55.586;37.730;2023-03-04T05:24:10;97373.06;;;-0.98;100.00
62712;BME280;48772;55.586;37.730;2023-03-04T05:26:36;97368.91;;;-1.00;100.00
62712;BME280;48772;55.586;37.730;2023-03-04T05:29:02;97377.13;;;-0.94;100.00
62712;BME280;48772;55.586;37.730;2023-03-04T05:31:28;97393.56;;;-0.92;100.00
62712;BME280;48772;55.586;37.730;2023-03-04T05:33:54;97375.25;;;-0.92;100.00
62712;BME280;48772;55.586;37.730;2023-03-04T05:36:21;97390.56;;;-0.98;100.00
62712;BME280;48772;55.586;37.730;2023-03-04T05:38:47;97336.94;;;-1.16;100.00
62712;BME280;48772;55.586;37.730;2023-03-04T05:41:14;97296.94;;;-1.42;100.00
62712;BME280;48772;55.586;37.730;2023-03-04T05:43:40;97343.13;;;-1.17;100.00
62712;BME280;48772;55.586;37.730;2023-03-04T05:46:14;97290.44;;;-1.36;100.00
62712;BME280;48772;55.586;37.730;2023-03-04T05:48:41;97330.63;;;-1.01;100.00
62712;BME280;48772;55.586;37.730;2023-03-04T05:51:07;97327.50;;;-0.83;100.00
62712;BME280;48772;55.586;37.730;2023-03-04T05:53:33;97300.03;;;-0.65;100.00
62712;BME280;48772;55.586;37.730;2023-03-04T05:56:09;97346.00;;;-0.50;100.00
62712;BME280;48772;55.586;37.730;2023-03-04T05:58:36;97233.66;;;-1.22;100.00
62712;BME280;48772;55.586;37.730;2023-03-04T06:01:05;97228.03;;;-1.28;100.00
62712;BME280;48772;55.586;37.730;2023-03-04T06:03:32;97296.31;;;-0.73;100.00
62712;BME280;48772;55.586;37.730;2023-03-04T06:05:58;97354.75;;;-0.38;100.00
62712;BME280;48772;55.586;37.730;2023-03-04T06:08:25;97232.59;;;-1.19;100.00
62712;BME280;48772;55.586;37.730;2023-03-04T06:10:53;97285.34;;;-0.78;100.00
62712;BME280;48772;55.586;37.730;2023-03-04T06:13:21;97330.19;;;-0.48;100.00
62712;BME280;48772;55.586;37.730;2023-03-04T06:15:56;97306.66;;;-0.48;100.00
62712;BME280;48772;55.586;37.730;2023-03-04T06:18:23;97295.28;;;-0.36;100.00
62712;BME280;48772;55.586;37.730;2023-03-04T06:20:49;97292.81;;;-0.27;100.00
62712;BME280;48772;55.586;37.730;2023-03-04T06:23:15;97335.91;;;0.15;100.00
62712;BME280;48772;55.586;37.730;2023-03-04T06:25:41;97301.78;;;0.61;100.00
62712;BME280;48772;55.586;37.730;2023-03-04T06:28:07;97257.63;;;0.99;100.00
62712;BME280;48772;55.586;37.730;2023-03-04T06:30:33;97330.56;;;1.27;100.00
62712;BME280;48772;55.586;37.730;2023-03-04T06:32:59;97311.66;;;0.79;100.00
62712;BME280;48772;55.586;37.730;2023-03-04T06:35:26;97309.25;;;0.32;100.00
62712;BME280;48772;55.586;37.730;2023-03-04T06:37:52;97328.91;;;0.38;100.00
62712;BME280;48772;55.586;37.730;2023-03-04T06:40:19;97329.75;;;0.49;100.00
62712;BME280;48772;55.586;37.730;2023-03-04T06:42:45;97274.47;;;0.52;100.00
62712;BME280;48772;55.586;37.730;2023-03-04T06:45:11;97321.88;;;0.93;100.00
62712;BME280;48772;55.586;37.730;2023-03-04T06:47:37;97300.28;;;0.90;100.00
62712;BME280;48772;55.586;37.730;2023-03-04T06:50:03;97274.97;;;1.11;100.00
62712;BME280;48772;55.586;37.730;2023-03-04T06:52:30;97227.66;;;0.48;100.00
62712;BME280;48772;55.586;37.730;2023-03-04T06:54:56;97311.16;;;0.96;100.00
62712;BME280;48772;55.586;37.730;2023-03-04T06:57:22;97262.06;;;0.65;100.00
62712;BME280;48772;55.586;37.730;2023-03-04T06:59:48;97238.47;;;0.54;100.00
62712;BME280;48772;55.586;37.730;2023-03-04T07:02:14;97254.81;;;0.69;100.00
62712;BME280;48772;55.586;37.730;2023-03-04T07:04:39;97265.84;;;0.94;100.00
62712;BME280;48772;55.586;37.730;2023-03-04T07:07:06;97276.88;;;1.20;100.00
62712;BME280;48772;55.586;37.730;2023-03-04T07:09:32;97245.28;;;1.21;100.00
62712;BME280;48772;55.586;37.730;2023-03-04T07:12:01;97234.47;;;1.35;100.00
62712;BME280;48772;55.586;37.730;2023-03-04T07:14:27;97173.41;;;1.74;100.00
62712;BME280;48772;55.586;37.730;2023-03-04T07:16:54;97191.28;;;2.89;100.00
62712;BME280;48772;55.586;37.730;2023-03-04T07:19:20;97197.13;;;3.31;100.00
62712;BME280;48772;55.586;37.730;2023-03-04T07:21:46;97222.50;;;3.22;100.00
62712;BME280;48772;55.586;37.730;2023-03-04T07:24:12;97232.97;;;2.94;100.00
62712;BME280;48772;55.586;37.730;2023-03-04T07:26:39;97256.38;;;2.97;100.00
62712;BME280;48772;55.586;37.730;2023-03-04T07:29:05;97233.06;;;2.83;100.00
62712;BME280;48772;55.586;37.730;2023-03-04T07:31:33;97157.22;;;2.97;100.00
62712;BME280;48772;55.586;37.730;2023-03-04T07:34:03;97177.69;;;3.80;100.00
62712;BME280;48772;55.586;37.730;2023-03-04T07:36:30;97175.63;;;4.20;100.00
62712;BME280;48772;55.586;37.730;2023-03-04T07:38:56;97215.47;;;4.63;100.00
62712;BME280;48772;55.586;37.730;2023-03-04T07:41:24;97184.38;;;4.57;100.00
62712;BME280;48772;55.586;37.730;2023-03-04T07:43:51;97195.06;;;4.28;100.00
62712;BME280;48772;55.586;37.730;2023-03-04T07:46:18;97190.16;;;4.33;100.00
62712;BME280;48772;55.586;37.730;2023-03-04T07:48:44;97217.59;;;4.04;100.00
62712;BME280;48772;55.586;37.730;2023-03-04T07:51:13;97197.97;;;3.50;100.00
62712;BME280;48772;55.586;37.730;2023-03-04T07:53:41;97216.28;;;3.23;100.00
62712;BME280;48772;55.586;37.730;2023-03-04T07:56:10;97211.78;;;2.95;100.00
62712;BME280;48772;55.586;37.730;2023-03-04T07:58:37;97199.22;;;2.59;100.00
62712;BME280;48772;55.586;37.730;2023-03-04T08:01:22;97174.84;;;2.18;100.00
62712;BME280;48772;55.586;37.730;2023-03-04T08:03:48;97196.97;;;1.85;100.00
62712;BME280;48772;55.586;37.730;2023-03-04T08:06:16;97227.34;;;1.78;100.00
62712;BME280;48772;55.586;37.730;2023-03-04T08:08:42;97097.34;;;1.22;100.00
62712;BME280;48772;55.586;37.730;2023-03-04T08:11:14;97163.94;;;1.62;100.00
62712;BME280;48772;55.586;37.730;2023-03-04T08:13:40;97172.25;;;1.67;100.00
62712;BME280;48772;55.586;37.730;2023-03-04T08:16:19;97211.31;;;2.02;100.00
62712;BME280;48772;55.586;37.730;2023-03-04T08:18:49;97129.78;;;1.62;100.00
62712;BME280;48772;55.586;37.730;2023-03-04T08:21:21;97201.41;;;2.45;100.00
62712;BME280;48772;55.586;37.730;2023-03-04T08:23:47;97088.41;;;1.55;100.00
62712;BME280;48772;55.586;37.730;2023-03-04T08:26:22;97162.69;;;2.17;100.00
62712;BME280;48772;55.586;37.730;2023-03-04T08:28:50;97096.88;;;1.88;100.00
62712;BME280;48772;55.586;37.730;2023-03-04T08:31:17;97185.16;;;2.79;100.00
62712;BME280;48772;55.586;37.730;2023-03-04T08:33:44;97165.22;;;2.67;100.00
62712;BME280;48772;55.586;37.730;2023-03-04T08:36:15;97093.72;;;2.34;100.00
62712;BME280;48772;55.586;37.730;2023-03-04T08:38:44;97172.91;;;2.50;100.00
62712;BME280;48772;55.586;37.730;2023-03-04T08:41:11;97043.41;;;1.59;100.00
62712;BME280;48772;55.586;37.730;2023-03-04T08:43:38;97130.69;;;2.02;100.00
62712;BME280;48772;55.586;37.730;2023-03-04T08:46:04;97141.38;;;1.80;100.00
62712;BME280;48772;55.586;37.730;2023-03-04T08:48:31;97126.78;;;1.46;100.00
62712;BME280;48772;55.586;37.730;2023-03-04T08:50:58;97044.34;;;0.87;100.00
62712;BME280;48772;55.586;37.730;2023-03-04T08:53:25;97092.72;;;1.35;100.00
62712;BME280;48772;55.586;37.730;2023-03-04T08:55:58;97096.00;;;1.48;100.00
62712;BME280;48772;55.586;37.730;2023-03-04T08:58:26;97102.91;;;1.49;100.00
62712;BME280;48772;55.586;37.730;2023-03-04T09:00:53;97163.56;;;1.97;100.00
62712;BME280;48772;55.586;37.730;2023-03-04T09:03:20;97049.00;;;1.45;100.00
62712;BME280;48772;55.586;37.730;2023-03-04T09:05:47;97143.63;;;2.24;100.00
62712;BME280;48772;55.586;37.730;2023-03-04T09:08:23;97094.81;;;2.31;100.00
62712;BME280;48772;55.586;37.730;2023-03-04T09:10:53;97024.25;;;2.27;100.00
62712;BME280;48772;55.586;37.730;2023-03-04T09:13:21;97124.97;;;3.80;100.00
62712;BME280;48772;55.586;37.730;2023-03-04T09:15:51;97084.53;;;3.62;100.00
62712;BME280;48772;55.586;37.730;2023-03-04T09:18:19;97118.72;;;4.27;100.00
62712;BME280;48772;55.586;37.730;2023-03-04T09:20:46;97074.41;;;3.67;100.00
62712;BME280;48772;55.586;37.730;2023-03-04T09:23:15;97003.06;;;3.04;100.00
62712;BME280;48772;55.586;37.730;2023-03-04T09:25:43;97019.16;;;3.38;100.00
62712;BME280;48772;55.586;37.730;2023-03-04T09:28:14;97060.59;;;4.19;100.00
62712;BME280;48772;55.586;37.730;2023-03-04T09:30:42;96992.13;;;3.45;100.00
62712;BME280;48772;55.586;37.730;2023-03-04T09:33:18;97044.38;;;3.40;100.00
62712;BME280;48772;55.586;37.730;2023-03-04T09:35:47;97076.44;;;3.07;100.00
62712;BME280;48772;55.586;37.730;2023-03-04T09:38:22;96985.66;;;2.37;100.00
62712;BME280;48772;55.586;37.730;2023-03-04T09:40:52;97017.47;;;2.43;100.00
62712;BME280;48772;55.586;37.730;2023-03-04T09:43:22;96955.75;;;2.00;100.00
62712;BME280;48772;55.586;37.730;2023-03-04T09:46:33;97019.81;;;2.27;100.00
62712;BME280;48772;55.586;37.730;2023-03-04T09:49:04;97030.88;;;2.31;100.00
62712;BME280;48772;55.586;37.730;2023-03-04T09:51:56;96953.88;;;1.72;100.00
62712;BME280;48772;55.586;37.730;2023-03-04T09:54:42;97016.63;;;2.24;100.00
62712;BME280;48772;55.586;37.730;2023-03-04T09:57:45;97028.00;;;2.72;100.00
62712;BME280;48772;55.586;37.730;2023-03-04T10:06:01;96992.69;;;2.36;100.00
62712;BME280;48772;55.586;37.730;2023-03-04T10:09:08;97022.06;;;2.60;100.00
62712;BME280;48772;55.586;37.730;2023-03-04T10:12:08;97001.16;;;2.78;100.00
62712;BME280;48772;55.586;37.730;2023-03-04T10:15:04;97006.28;;;2.79;100.00
62712;BME280;48772;55.586;37.730;2023-03-04T10:17:48;96952.44;;;2.64;100.00
62712;BME280;48772;55.586;37.730;2023-03-04T10:20:26;96945.75;;;2.79;100.00
62712;BME280;48772;55.586;37.730;2023-03-04T10:22:58;96975.81;;;2.86;100.00
62712;BME280;48772;55.586;37.730;2023-03-04T10:25:30;96986.78;;;3.28;100.00
62712;BME280;48772;55.586;37.730;2023-03-04T10:27:59;96973.97;;;2.96;100.00
62712;BME280;48772;55.586;37.730;2023-03-04T10:33:23;97002.31;;;3.21;100.00
62712;BME280;48772;55.586;37.730;2023-03-04T10:38:21;96959.88;;;2.69;100.00
62712;BME280;48772;55.586;37.730;2023-03-04T10:40:48;96944.81;;;2.61;100.00
62712;BME280;48772;55.586;37.730;2023-03-04T10:43:18;96973.88;;;2.60;100.00
62712;BME280;48772;55.586;37.730;2023-03-04T10:45:44;96935.69;;;2.08;100.00
62712;BME280;48772;55.586;37.730;2023-03-04T10:48:42;96969.16;;;2.16;100.00
62712;BME280;48772;55.586;37.730;2023-03-04T10:51:15;96952.81;;;1.93;100.00
62712;BME280;48772;55.586;37.730;2023-03-04T10:53:43;96962.66;;;1.91;100.00
62712;BME280;48772;55.586;37.730;2023-03-04T10:56:29;96962.53;;;2.02;100.00
62712;BME280;48772;55.586;37.730;2023-03-04T11:01:53;96946.50;;;2.43;100.00
62712;BME280;48772;55.586;37.730;2023-03-04T11:04:22;96933.47;;;2.42;100.00
62712;BME280;48772;55.586;37.730;2023-03-04T11:06:50;96921.44;;;2.39;100.00
62712;BME280;48772;55.586;37.730;2023-03-04T11:09:28;96888.94;;;2.02;100.00
62712;BME280;48772;55.586;37.730;2023-03-04T11:11:58;96924.59;;;2.52;100.00
62712;BME280;48772;55.586;37.730;2023-03-04T11:14:47;96927.97;;;2.35;100.00
62712;BME280;48772;55.586;37.730;2023-03-04T11:17:26;96877.88;;;2.08;100.00
62712;BME280;48772;55.586;37.730;2023-03-04T11:20:02;96892.56;;;2.20;100.00
62712;BME280;48772;55.586;37.730;2023-03-04T11:22:30;96889.34;;;2.07;100.00
62712;BME280;48772;55.586;37.730;2023-03-04T11:25:06;96884.22;;;1.87;100.00
62712;BME280;48772;55.586;37.730;2023-03-04T11:27:44;96890.03;;;1.90;100.00
62712;BME280;48772;55.586;37.730;2023-03-04T11:30:31;96890.41;;;1.57;100.00
62712;BME280;48772;55.586;37.730;2023-03-04T11:38:53;96892.72;;;1.41;100.00
62712;BME280;48772;55.586;37.730;2023-03-04T11:41:32;96880.56;;;1.40;100.00
62712;BME280;48772;55.586;37.730;2023-03-04T11:44:01;96877.19;;;1.19;100.00
62712;BME280;48772;55.586;37.730;2023-03-04T11:46:55;96890.50;;;1.46;100.00
62712;BME280;48772;55.586;37.730;2023-03-04T12:05:47;96879.16;;;1.27;100.00
62712;BME280;48772;55.586;37.730;2023-03-04T12:14:20;96844.38;;;1.44;100.00
62712;BME280;48772;55.586;37.730;2023-03-04T12:17:06;96830.25;;;1.35;100.00
62712;BME280;48772;55.586;37.730;2023-03-04T12:25:54;96816.06;;;1.38;100.00
62712;BME280;48772;55.586;37.730;2023-03-04T12:31:40;96827.47;;;1.27;100.00
62712;BME280;48772;55.586;37.730;2023-03-04T12:46:01;96791.44;;;1.20;100.00
62712;BME280;48772;55.586;37.730;2023-03-04T12:48:40;96796.25;;;1.24;100.00
62712;BME280;48772;55.586;37.730;2023-03-04T12:51:33;96781.34;;;1.06;100.00
62712;BME280;48772;55.586;37.730;2023-03-04T12:54:22;96766.38;;;0.97;100.00
62712;BME280;48772;55.586;37.730;2023-03-04T12:56:53;96778.88;;;1.23;100.00
62712;BME280;48772;55.586;37.730;2023-03-04T12:59:23;96660.19;;;0.53;100.00
62712;BME280;48772;55.586;37.730;2023-03-04T13:10:26;96744.31;;;0.99;100.00
62712;BME280;48772;55.586;37.730;2023-03-04T13:12:56;96744.03;;;1.02;100.00
62712;BME280;48772;55.586;37.730;2023-03-04T13:15:33;96764.50;;;1.18;100.00
62712;BME280;48772;55.586;37.730;2023-03-04T13:18:31;96739.78;;;1.20;100.00
62712;BME280;48772;55.586;37.730;2023-03-04T13:23:46;96736.03;;;1.13;100.00
62712;BME280;48772;55.586;37.730;2023-03-04T13:28:43;96736.59;;;1.07;100.00
62712;BME280;48772;55.586;37.730;2023-03-04T13:31:14;96639.91;;;0.55;100.00
62712;BME280;48772;55.586;37.730;2023-03-04T13:33:49;96703.16;;;0.90;100.00
62712;BME280;48772;55.586;37.730;2023-03-04T13:36:51;96710.63;;;0.95;100.00
62712;BME280;48772;55.586;37.730;2023-03-04T13:39:21;96678.44;;;0.83;100.00
62712;BME280;48772;55.586;37.730;2023-03-04T13:41:52;96618.91;;;0.46;100.00
62712;BME280;48772;55.586;37.730;2023-03-04T13:47:12;96661.47;;;0.78;100.00
62712;BME280;48772;55.586;37.730;2023-03-04T13:49:40;96696.16;;;1.10;100.00
62712;BME280;48772;55.586;37.730;2023-03-04T13:52:34;96692.53;;;1.01;100.00
62712;BME280;48772;55.586;37.730;2023-03-04T13:55:37;96688.41;;;0.99;100.00
62712;BME280;48772;55.586;37.730;2023-03-04T13:58:25;96684.38;;;0.85;100.00
62712;BME280;48772;55.586;37.730;2023-03-04T14:00:53;96685.50;;;0.92;100.00
62712;BME280;48772;55.586;37.730;2023-03-04T14:03:26;96686.88;;;0.87;100.00
62712;BME280;48772;55.586;37.730;2023-03-04T14:06:09;96633.81;;;0.45;100.00
62712;BME280;48772;55.586;37.730;2023-03-04T14:08:35;96657.59;;;0.72;100.00
62712;BME280;48772;55.586;37.730;2023-03-04T14:11:01;96670.44;;;0.75;100.00
62712;BME280;48772;55.586;37.730;2023-03-04T14:13:27;96664.78;;;0.70;100.00
62712;BME280;48772;55.586;37.730;2023-03-04T14:15:55;96658.16;;;0.66;100.00
62712;BME280;48772;55.586;37.730;2023-03-04T14:18:21;96582.63;;;0.22;100.00
62712;BME280;48772;55.586;37.730;2023-03-04T14:20:50;96660.47;;;0.69;100.00